Time;durP1;ratioP1;P1;durP2;ratioP2;P2;SDS_P1;SDS_P2;PMS_P1;PMS_P2;Temp;Humidity;BMP_temperature;BMP_pressure;BME280_temperature;BME280_humidity;BME280_pressure;Samples;Min_cycle;Max_cycle;Signal;HPM_P1;HPM_P2
2023/12/15 00:00:16;;;;;;;15.02;7.38;;;7.60;99.90;;;;;;5067854;28;20078;-65
2023/12/15 00:02:45;;;;;;;16.02;7.38;;;7.60;99.90;;;;;;5065480;28;20182;-65
2023/12/15 00:05:12;;;;;;;12.40;7.18;;;7.70;99.90;;;;;;5062810;28;20064;-64
2023/12/15 00:07:39;;;;;;;13.40;8.05;;;7.70;99.90;;;;;;5064970;28;20037;-66
2023/12/15 00:10:06;;;;;;;17.25;7.05;;;7.70;99.90;;;;;;5046616;28;20106;-63
2023/12/15 00:12:33;;;;;;;13.43;7.05;;;7.70;99.90;;;;;;5063049;28;20148;-64
2023/12/15 00:15:00;;;;;;;13.30;8.05;;;7.70;99.90;;;;;;5061173;28;20048;-63
2023/12/15 00:17:27;;;;;;;15.68;7.72;;;7.70;99.90;;;;;;5064805;28;20052;-63
2023/12/15 00:19:53;;;;;;;15.80;7.43;;;7.70;99.90;;;;;;5061284;28;20139;-65
2023/12/15 00:22:20;;;;;;;13.45;6.88;;;7.70;99.90;;;;;;5059781;28;20044;-65
2023/12/15 00:24:47;;;;;;;16.58;7.75;;;7.70;99.90;;;;;;5069593;28;20045;-65
2023/12/15 00:27:14;;;;;;;12.93;7.05;;;7.70;99.90;;;;;;5060284;28;20053;-65
2023/12/15 00:29:41;;;;;;;14.45;6.85;;;7.70;99.90;;;;;;5066221;28;20051;-66
2023/12/15 00:32:08;;;;;;;15.90;7.25;;;7.70;99.90;;;;;;5073340;28;20549;-66
2023/12/15 00:34:34;;;;;;;13.00;6.63;;;7.70;99.90;;;;;;5085004;28;20131;-65
2023/12/15 00:37:01;;;;;;;11.57;6.65;;;7.70;99.90;;;;;;5066415;28;20090;-64
2023/12/15 00:39:30;;;;;;;20.42;8.00;;;7.60;99.90;;;;;;5068633;28;20072;-65
2023/12/15 00:41:57;;;;;;;13.13;6.32;;;7.60;99.90;;;;;;5084386;28;20052;-65
2023/12/15 00:44:24;;;;;;;13.68;6.97;;;7.70;99.90;;;;;;5070132;28;20037;-65
2023/12/15 00:46:51;;;;;;;15.98;6.07;;;7.70;99.90;;;;;;5069221;28;20106;-64
2023/12/15 00:49:17;;;;;;;11.27;6.22;;;7.70;99.90;;;;;;5066841;28;20051;-64
2023/12/15 00:51:44;;;;;;;15.30;6.80;;;7.70;99.90;;;;;;5069353;28;20071;-65
2023/12/15 00:54:11;;;;;;;20.30;8.82;;;7.70;99.90;;;;;;5071862;28;20396;-65
2023/12/15 00:56:38;;;;;;;16.08;6.38;;;7.80;99.90;;;;;;5071782;28;20086;-65
2023/12/15 00:59:05;;;;;;;13.95;6.15;;;7.80;99.90;;;;;;5063298;28;20500;-65
2023/12/15 01:01:32;;;;;;;16.98;7.20;;;7.80;99.90;;;;;;5069835;28;20484;-65
2023/12/15 01:03:59;;;;;;;19.77;6.82;;;7.80;99.90;;;;;;5069920;28;20072;-65
2023/12/15 01:06:26;;;;;;;15.35;5.80;;;7.70;99.90;;;;;;5070284;28;20049;-65
2023/12/15 01:08:52;;;;;;;14.77;6.50;;;7.80;99.90;;;;;;5079712;28;20059;-65
2023/12/15 01:11:19;;;;;;;19.80;6.28;;;7.70;99.90;;;;;;5071388;28;20519;-64
2023/12/15 01:13:46;;;;;;;17.08;6.28;;;7.70;99.90;;;;;;5069771;28;20135;-65
2023/12/15 01:16:13;;;;;;;17.00;6.82;;;7.70;99.90;;;;;;5056694;28;20051;-66
2023/12/15 01:18:40;;;;;;;21.30;6.00;;;7.70;99.90;;;;;;5067470;28;20040;-64
2023/12/15 01:21:07;;;;;;;16.38;5.35;;;7.70;99.90;;;;;;5070080;28;20048;-65
2023/12/15 01:23:35;;;;;;;17.48;6.38;;;7.70;99.90;;;;;;5067638;28;20380;-64
2023/12/15 01:26:02;;;;;;;15.75;5.45;;;7.70;99.90;;;;;;5081896;28;20045;-64
2023/12/15 01:28:29;;;;;;;19.35;6.85;;;7.70;99.90;;;;;;5044948;28;20503;-65
2023/12/15 01:30:56;;;;;;;16.48;6.28;;;7.70;99.90;;;;;;5064806;28;20033;-65
2023/12/15 01:33:23;;;;;;;21.58;6.05;;;7.70;99.90;;;;;;5065780;28;20049;-65
2023/12/15 01:35:50;;;;;;;20.42;6.68;;;7.70;99.90;;;;;;5058948;28;20072;-65
2023/12/15 01:38:17;;;;;;;19.40;5.35;;;7.80;99.90;;;;;;5035727;28;20045;-64
2023/12/15 01:40:44;;;;;;;21.73;5.60;;;7.80;99.90;;;;;;5069263;28;20135;-65
2023/12/15 01:43:11;;;;;;;19.48;5.80;;;7.80;99.90;;;;;;5069438;28;20103;-65
2023/12/15 01:45:38;;;;;;;16.83;5.72;;;7.80;99.90;;;;;;5066212;28;20048;-65
2023/12/15 01:48:05;;;;;;;20.40;5.53;;;7.80;99.90;;;;;;5067992;28;20052;-63
2023/12/15 01:50:32;;;;;;;19.90;5.63;;;7.80;99.90;;;;;;5051662;28;20044;-64
2023/12/15 01:52:59;;;;;;;16.33;6.35;;;7.80;99.90;;;;;;5071490;28;20123;-65
2023/12/15 01:55:26;;;;;;;18.98;5.82;;;7.80;99.90;;;;;;5068726;28;20052;-65
2023/12/15 01:57:53;;;;;;;18.08;6.97;;;7.80;99.90;;;;;;5075423;28;20048;-64
2023/12/15 02:00:19;;;;;;;17.33;5.15;;;8.00;99.90;;;;;;5068522;28;20080;-63
2023/12/15 02:02:46;;;;;;;24.92;6.10;;;7.80;99.90;;;;;;5050982;28;20474;-64
2023/12/15 02:05:13;;;;;;;21.77;5.75;;;7.80;99.90;;;;;;5068473;28;20097;-64
2023/12/15 02:07:40;;;;;;;13.95;5.25;;;7.70;99.90;;;;;;5068802;28;20048;-64
2023/12/15 02:10:07;;;;;;;22.65;6.55;;;7.70;99.90;;;;;;5066798;28;20091;-65
2023/12/15 02:12:34;;;;;;;16.15;5.15;;;7.70;99.90;;;;;;5078844;28;20040;-64
2023/12/15 02:15:01;;;;;;;19.83;5.47;;;7.70;99.90;;;;;;5083972;28;20133;-63
2023/12/15 02:17:28;;;;;;;22.35;5.43;;;7.70;99.90;;;;;;5067953;28;20040;-64
2023/12/15 02:19:55;;;;;;;15.00;5.22;;;7.60;99.90;;;;;;5066710;28;20040;-64
2023/12/15 02:22:25;;;;;;;17.23;4.75;;;7.70;99.90;;;;;;4716559;28;10000258;-64
2023/12/15 02:24:53;;;;;;;19.08;4.57;;;7.70;99.90;;;;;;5067605;28;20048;-64
2023/12/15 02:27:19;;;;;;;22.33;5.13;;;7.70;99.90;;;;;;5068373;28;20048;-64
2023/12/15 02:29:46;;;;;;;20.75;5.60;;;7.70;99.90;;;;;;5074866;28;20473;-64
2023/12/15 02:32:13;;;;;;;16.88;4.75;;;7.70;99.90;;;;;;5068200;28;20074;-64
2023/12/15 02:34:40;;;;;;;20.67;5.10;;;7.60;99.90;;;;;;5068606;28;20052;-64
2023/12/15 02:37:07;;;;;;;12.88;4.43;;;7.60;99.90;;;;;;5068228;28;20044;-66
2023/12/15 02:39:34;;;;;;;26.02;5.25;;;7.60;99.90;;;;;;5068502;28;20076;-65
2023/12/15 02:42:00;;;;;;;15.73;4.35;;;7.60;99.90;;;;;;5068161;28;20048;-65
2023/12/15 02:44:27;;;;;;;21.40;4.97;;;7.60;99.90;;;;;;5067691;28;20040;-64
2023/12/15 02:46:54;;;;;;;20.30;6.68;;;7.60;99.90;;;;;;5077394;28;20043;-64
2023/12/15 02:49:21;;;;;;;17.17;4.65;;;7.70;99.90;;;;;;5052573;28;20049;-67
2023/12/15 02:51:48;;;;;;;13.82;5.68;;;7.70;99.90;;;;;;5077616;28;20064;-63
2023/12/15 02:54:14;;;;;;;24.73;6.10;;;7.70;99.90;;;;;;5068652;28;20385;-64
2023/12/15 02:56:41;;;;;;;19.65;4.90;;;7.60;99.90;;;;;;5067597;28;20041;-64
2023/12/15 02:59:08;;;;;;;18.20;5.95;;;7.60;99.90;;;;;;5074308;28;20125;-64
2023/12/15 03:01:35;;;;;;;18.95;4.93;;;7.60;99.90;;;;;;5055764;28;20316;-64
2023/12/15 03:04:02;;;;;;;19.88;4.50;;;7.60;99.90;;;;;;5049788;28;20117;-64
2023/12/15 03:06:28;;;;;;;16.83;4.70;;;7.60;99.90;;;;;;5067614;28;20045;-63
2023/12/15 03:08:55;;;;;;;24.05;4.88;;;7.60;99.90;;;;;;5067485;28;20040;-63
2023/12/15 03:11:22;;;;;;;20.02;4.57;;;7.60;99.90;;;;;;5067919;28;20067;-64
2023/12/15 03:13:49;;;;;;;21.00;5.43;;;7.50;99.90;;;;;;5073942;28;20076;-64
2023/12/15 03:16:16;;;;;;;16.25;4.25;;;7.50;99.90;;;;;;5068666;28;20381;-64
2023/12/15 03:18:43;;;;;;;19.88;4.35;;;7.50;99.90;;;;;;5069283;28;20040;-64
2023/12/15 03:21:10;;;;;;;16.60;5.75;;;7.50;99.90;;;;;;5065867;28;20511;-65
2023/12/15 03:23:37;;;;;;;23.17;4.68;;;7.40;99.90;;;;;;5065299;28;20490;-65
2023/12/15 03:26:04;;;;;;;31.48;5.63;;;7.40;99.90;;;;;;5063720;28;21059;-64
2023/12/15 03:28:31;;;;;;;23.95;6.15;;;7.30;99.90;;;;;;5064425;28;20080;-64
2023/12/15 03:30:58;;;;;;;25.70;4.85;;;7.40;99.90;;;;;;5066383;28;20041;-64
2023/12/15 03:33:25;;;;;;;20.75;4.85;;;7.30;99.90;;;;;;5070843;28;20496;-64
2023/12/15 03:35:52;;;;;;;15.52;5.00;;;7.30;99.90;;;;;;5071210;28;20059;-65
2023/12/15 03:38:20;;;;;;;17.02;5.18;;;7.30;99.90;;;;;;5067192;28;20040;-64
2023/12/15 03:40:47;;;;;;;31.70;6.43;;;7.30;99.90;;;;;;5059011;28;20064;-64
2023/12/15 03:43:14;;;;;;;30.85;5.47;;;7.40;99.90;;;;;;5067763;28;20400;-64
2023/12/15 03:45:40;;;;;;;25.80;4.85;;;7.30;99.90;;;;;;5066670;28;20052;-64
2023/12/15 03:48:07;;;;;;;16.55;4.35;;;7.30;99.90;;;;;;5067488;28;20045;-64
2023/12/15 03:50:34;;;;;;;19.75;4.10;;;7.30;99.90;;;;;;5064343;28;20139;-64
2023/12/15 03:53:01;;;;;;;14.02;3.72;;;7.30;99.90;;;;;;5065783;28;20044;-64
2023/12/15 03:55:28;;;;;;;23.75;5.05;;;7.30;99.90;;;;;;5068417;28;20044;-64
2023/12/15 03:57:55;;;;;;;15.10;4.15;;;7.30;99.90;;;;;;5078313;28;20067;-64
2023/12/15 04:00:22;;;;;;;21.95;4.40;;;7.40;99.90;;;;;;5068726;28;20576;-64
2023/12/15 04:02:49;;;;;;;24.02;3.85;;;7.40;99.90;;;;;;5068293;28;20048;-64
2023/12/15 04:05:16;;;;;;;31.02;4.78;;;7.40;99.90;;;;;;5065177;28;20144;-64
2023/12/15 04:07:43;;;;;;;16.73;4.78;;;7.40;99.90;;;;;;5058725;28;20116;-64
2023/12/15 04:10:10;;;;;;;23.90;5.22;;;7.40;99.90;;;;;;5067175;28;20049;-64
2023/12/15 04:12:37;;;;;;;24.08;6.05;;;7.40;99.90;;;;;;5051848;28;20052;-64
2023/12/15 04:15:05;;;;;;;21.30;4.32;;;7.40;99.90;;;;;;5064678;28;20081;-64
2023/12/15 04:17:32;;;;;;;19.02;3.78;;;7.40;99.90;;;;;;5065655;28;20041;-64
2023/12/15 04:19:59;;;;;;;21.27;5.40;;;7.40;99.90;;;;;;5066996;28;20080;-64
2023/12/15 04:22:26;;;;;;;20.25;4.93;;;7.40;99.90;;;;;;5069660;28;20094;-64
2023/12/15 04:24:53;;;;;;;19.23;4.35;;;7.40;99.90;;;;;;5067791;28;20076;-64
2023/12/15 04:27:20;;;;;;;20.45;6.88;;;7.30;99.90;;;;;;5050488;28;20047;-65
2023/12/15 04:29:47;;;;;;;19.15;4.03;;;7.20;99.90;;;;;;5067366;28;20052;-64
2023/12/15 04:32:13;;;;;;;24.63;5.03;;;7.20;99.90;;;;;;5070111;28;20108;-67
2023/12/15 04:34:40;;;;;;;19.27;3.85;;;7.10;99.90;;;;;;5074638;28;20055;-64
2023/12/15 04:37:07;;;;;;;19.60;4.50;;;7.10;99.90;;;;;;5075840;28;20114;-64
2023/12/15 04:39:36;;;;;;;18.27;4.00;;;7.10;99.90;;;;;;5068112;28;20451;-64
2023/12/15 04:42:03;;;;;;;12.27;3.20;;;7.10;99.90;;;;;;5068311;28;20040;-64
2023/12/15 04:44:29;;;;;;;10.63;3.53;;;7.10;99.90;;;;;;5077245;28;20059;-66
2023/12/15 04:46:56;;;;;;;18.70;4.43;;;7.20;99.90;;;;;;5068957;28;20101;-65
2023/12/15 04:49:23;;;;;;;20.95;4.07;;;7.20;99.90;;;;;;5070051;28;20102;-64
2023/12/15 04:51:50;;;;;;;13.65;4.40;;;7.20;99.90;;;;;;5068630;28;20118;-64
2023/12/15 04:54:17;;;;;;;21.58;4.22;;;7.20;99.90;;;;;;5070497;28;20049;-64
2023/12/15 04:56:44;;;;;;;21.88;3.67;;;7.20;99.90;;;;;;5068525;28;20152;-64
2023/12/15 04:59:12;;;;;;;19.85;4.13;;;7.30;99.90;;;;;;5071168;28;20136;-64
2023/12/15 05:01:39;;;;;;;22.10;5.18;;;7.30;99.90;;;;;;5074507;28;20059;-65
2023/12/15 05:04:05;;;;;;;16.40;5.28;;;7.30;99.90;;;;;;5068338;28;20109;-65
2023/12/15 05:06:34;;;;;;;18.20;3.55;;;7.30;99.90;;;;;;5070028;28;20045;-65
2023/12/15 05:09:04;;;;;;;20.92;4.28;;;7.30;99.90;;;;;;5070382;28;20040;-64
2023/12/15 05:11:35;;;;;;;18.77;3.97;;;7.30;99.90;;;;;;5067375;28;20097;-64
2023/12/15 05:14:02;;;;;;;21.35;4.32;;;7.30;99.90;;;;;;5068001;28;20045;-64
2023/12/15 05:16:32;;;;;;;12.43;3.65;;;7.30;99.90;;;;;;5074974;28;20041;-64
2023/12/15 05:18:59;;;;;;;20.42;3.60;;;7.30;99.90;;;;;;5050442;28;20089;-64
2023/12/15 05:21:26;;;;;;;24.02;4.95;;;7.30;99.90;;;;;;5062768;28;20105;-64
2023/12/15 05:23:53;;;;;;;27.15;7.25;;;7.30;99.90;;;;;;5071664;28;20355;-64
2023/12/15 05:26:20;;;;;;;15.55;4.13;;;7.20;99.90;;;;;;5071408;28;20048;-64
2023/12/15 05:28:46;;;;;;;17.30;3.70;;;7.20;99.90;;;;;;5069413;28;20056;-65
2023/12/15 05:31:13;;;;;;;12.13;3.47;;;7.20;99.90;;;;;;5065355;28;20079;-64
2023/12/15 05:33:40;;;;;;;18.08;4.15;;;7.30;99.90;;;;;;5067452;28;20098;-65
2023/12/15 05:36:07;;;;;;;13.05;3.78;;;7.10;99.90;;;;;;5074959;28;20407;-65
2023/12/15 05:38:34;;;;;;;12.23;3.28;;;7.10;99.90;;;;;;5067655;28;20455;-65
2023/12/15 05:41:01;;;;;;;16.60;3.65;;;7.10;99.90;;;;;;5059514;28;20454;-64
2023/12/15 05:43:28;;;;;;;19.83;3.50;;;7.10;99.90;;;;;;5065657;28;20055;-65
2023/12/15 05:45:55;;;;;;;13.57;3.63;;;7.20;99.90;;;;;;5068094;28;20406;-67
2023/12/15 05:48:22;;;;;;;12.75;4.05;;;7.20;99.90;;;;;;5067785;28;20045;-64
2023/12/15 05:50:49;;;;;;;32.40;6.15;;;7.20;99.90;;;;;;5082838;28;20509;-63
2023/12/15 05:53:16;;;;;;;11.60;3.42;;;7.20;99.90;;;;;;5068186;28;20044;-64
2023/12/15 05:55:43;;;;;;;17.67;3.88;;;7.10;99.90;;;;;;5072080;28;20048;-64
2023/12/15 05:58:10;;;;;;;16.38;3.55;;;7.10;99.90;;;;;;5073281;28;20072;-64
2023/12/15 06:00:36;;;;;;;22.02;3.50;;;7.10;99.90;;;;;;5077527;28;20048;-64
2023/12/15 06:03:04;;;;;;;14.68;4.25;;;7.00;99.90;;;;;;5067106;28;20123;-64
2023/12/15 06:05:34;;;;;;;12.60;3.40;;;7.00;99.90;;;;;;5074573;28;20078;-64
2023/12/15 06:08:01;;;;;;;21.17;3.90;;;7.00;99.90;;;;;;5063830;28;20146;-64
2023/12/15 06:10:28;;;;;;;15.40;4.43;;;7.00;99.90;;;;;;5062345;28;20083;-65
2023/12/15 06:12:55;;;;;;;12.38;2.97;;;7.00;99.90;;;;;;5068850;28;20120;-64
2023/12/15 06:15:22;;;;;;;16.55;3.72;;;7.00;99.90;;;;;;5067179;28;20101;-65
2023/12/15 06:17:48;;;;;;;17.63;3.22;;;7.00;99.90;;;;;;5066347;28;20495;-64
2023/12/15 06:20:15;;;;;;;16.50;3.60;;;7.00;99.90;;;;;;5060071;28;20037;-64
2023/12/15 06:22:42;;;;;;;12.77;3.28;;;7.00;99.90;;;;;;5054838;28;20495;-64
2023/12/15 06:25:09;;;;;;;18.58;3.92;;;6.90;99.90;;;;;;5058252;28;20044;-65
2023/12/15 06:27:36;;;;;;;17.27;3.35;;;6.90;99.90;;;;;;5065222;28;20467;-64
2023/12/15 06:30:04;;;;;;;12.68;3.83;;;6.80;99.90;;;;;;5064967;28;20124;-64
2023/12/15 06:32:31;;;;;;;19.40;4.32;;;6.80;99.90;;;;;;5066548;28;20102;-64
2023/12/15 06:34:58;;;;;;;32.95;6.65;;;6.80;99.90;;;;;;5070941;28;20296;-63
2023/12/15 06:37:25;;;;;;;18.20;4.13;;;6.70;99.90;;;;;;5078026;28;20048;-64
2023/12/15 06:39:52;;;;;;;20.13;4.13;;;6.70;99.90;;;;;;5081591;28;20048;-64
2023/12/15 06:42:19;;;;;;;14.88;3.80;;;6.70;99.90;;;;;;5065470;28;20045;-63
2023/12/15 06:44:46;;;;;;;16.63;4.78;;;6.80;99.90;;;;;;5082320;28;20197;-63
2023/12/15 06:47:13;;;;;;;18.60;3.55;;;6.70;99.90;;;;;;5070401;28;20117;-64
2023/12/15 06:49:40;;;;;;;16.13;3.75;;;6.70;99.90;;;;;;5061636;28;20127;-63
2023/12/15 06:52:08;;;;;;;15.63;3.78;;;6.70;99.90;;;;;;5064971;28;20463;-63
2023/12/15 06:54:38;;;;;;;14.57;3.72;;;6.60;99.90;;;;;;5062517;28;20286;-63
2023/12/15 06:57:06;;;;;;;19.25;5.15;;;6.60;99.90;;;;;;5066074;28;20154;-63
2023/12/15 06:59:33;;;;;;;15.60;4.65;;;6.60;99.90;;;;;;5064937;28;20056;-63
2023/12/15 07:02:00;;;;;;;12.73;3.65;;;6.50;99.90;;;;;;5066348;28;20060;-63
2023/12/15 07:04:27;;;;;;;24.95;4.65;;;6.50;99.90;;;;;;5066582;28;20446;-63
2023/12/15 07:06:54;;;;;;;15.55;3.92;;;6.40;99.90;;;;;;5066749;28;20044;-63
2023/12/15 07:09:22;;;;;;;17.20;4.53;;;6.30;99.90;;;;;;5070367;28;20282;-62
2023/12/15 07:11:48;;;;;;;15.52;3.58;;;6.30;99.90;;;;;;5062715;28;20109;-62
2023/12/15 07:14:15;;;;;;;16.75;3.88;;;6.10;99.90;;;;;;5048899;28;20052;-63
2023/12/15 07:16:42;;;;;;;17.42;3.90;;;6.10;99.90;;;;;;5065349;28;20087;-62
2023/12/15 07:19:09;;;;;;;13.48;3.92;;;6.10;99.90;;;;;;5066069;28;20133;-62
2023/12/15 07:21:36;;;;;;;12.05;4.72;;;6.00;99.90;;;;;;5057402;28;20087;-63
2023/12/15 07:24:03;;;;;;;15.48;4.95;;;6.00;99.90;;;;;;5066536;28;20136;-63
2023/12/15 07:26:29;;;;;;;10.77;4.15;;;5.90;99.90;;;;;;5081720;28;20041;-62
2023/12/15 07:28:56;;;;;;;13.88;3.90;;;5.90;99.90;;;;;;5065862;28;20505;-64
2023/12/15 07:31:23;;;;;;;22.55;4.10;;;5.90;99.90;;;;;;5046681;28;20527;-64
2023/12/15 07:33:50;;;;;;;19.85;4.35;;;5.80;99.90;;;;;;5064198;28;20052;-62
2023/12/15 07:36:17;;;;;;;24.30;5.95;;;5.70;99.90;;;;;;5065257;28;20556;-61
2023/12/15 07:38:44;;;;;;;19.65;4.97;;;5.70;99.90;;;;;;5065197;28;20276;-62
2023/12/15 07:41:10;;;;;;;20.20;5.20;;;5.70;99.90;;;;;;5062368;28;20044;-61
2023/12/15 07:43:38;;;;;;;11.48;4.45;;;5.70;99.90;;;;;;5067980;28;20044;-61
2023/12/15 07:46:05;;;;;;;23.83;4.22;;;5.70;99.90;;;;;;5065826;28;20100;-61
2023/12/15 07:48:32;;;;;;;17.38;4.95;;;5.60;99.90;;;;;;5066266;28;20408;-61
2023/12/15 07:51:00;;;;;;;23.27;5.25;;;5.60;99.90;;;;;;5063648;28;20101;-62
2023/12/15 07:53:28;;;;;;;19.20;5.63;;;5.60;99.90;;;;;;5066020;28;20067;-61
2023/12/15 07:55:55;;;;;;;15.82;4.95;;;5.60;99.90;;;;;;5065676;28;20176;-61
2023/12/15 07:58:21;;;;;;;14.80;4.18;;;5.60;99.90;;;;;;5068318;28;20047;-61
2023/12/15 08:00:48;;;;;;;27.15;4.55;;;5.60;99.90;;;;;;5055704;28;20061;-63
2023/12/15 08:03:15;;;;;;;13.27;4.57;;;5.50;99.90;;;;;;5069901;28;20467;-62
2023/12/15 08:05:49;;;;;;;16.10;4.75;;;5.60;99.90;;;;;;5071668;28;20059;-63
2023/12/15 08:08:16;;;;;;;21.38;5.18;;;5.60;99.90;;;;;;5066329;28;20087;-63
2023/12/15 08:10:43;;;;;;;12.23;4.82;;;5.70;99.90;;;;;;5072390;28;20114;-63
2023/12/15 08:13:13;;;;;;;17.17;3.92;;;5.70;99.90;;;;;;5061405;28;20473;-62
2023/12/15 08:15:40;;;;;;;16.08;4.10;;;5.80;99.90;;;;;;5067526;28;20052;-63
2023/12/15 08:18:07;;;;;;;15.65;5.22;;;5.80;99.90;;;;;;5066722;28;20068;-62
2023/12/15 08:20:34;;;;;;;15.23;3.55;;;5.80;99.90;;;;;;5066394;28;20055;-62
2023/12/15 08:23:01;;;;;;;17.10;4.40;;;5.90;99.90;;;;;;5060655;28;20415;-64
2023/12/15 08:25:28;;;;;;;13.05;4.53;;;5.90;99.90;;;;;;5062353;28;20052;-62
2023/12/15 08:27:55;;;;;;;23.23;4.85;;;5.90;99.90;;;;;;5046441;28;20048;-65
2023/12/15 08:30:21;;;;;;;33.03;9.07;;;5.90;99.90;;;;;;5064606;28;20049;-63
2023/12/15 08:32:48;;;;;;;19.58;5.13;;;6.00;99.90;;;;;;5064100;28;20047;-63
2023/12/15 08:35:15;;;;;;;15.40;4.43;;;6.10;99.90;;;;;;5067098;28;20127;-63
2023/12/15 08:37:42;;;;;;;23.73;5.68;;;6.10;99.90;;;;;;5065382;28;20071;-63
2023/12/15 08:40:09;;;;;;;31.58;6.22;;;5.90;99.90;;;;;;5065394;28;20101;-62
2023/12/15 08:42:36;;;;;;;41.42;5.70;;;6.20;99.90;;;;;;5065983;28;20146;-62
2023/12/15 08:45:03;;;;;;;21.77;3.90;;;6.30;99.90;;;;;;5069021;28;20033;-63
2023/12/15 08:47:30;;;;;;;24.80;4.78;;;6.40;99.90;;;;;;5069595;28;20047;-62
2023/12/15 08:49:57;;;;;;;16.92;4.53;;;6.50;99.90;;;;;;5068901;28;20068;-62
2023/12/15 08:52:24;;;;;;;12.63;3.75;;;6.50;99.90;;;;;;5068546;28;20040;-64
2023/12/15 08:54:51;;;;;;;16.05;3.35;;;6.60;99.90;;;;;;5049714;28;20048;-61
2023/12/15 08:57:18;;;;;;;23.25;3.78;;;6.70;99.90;;;;;;5067634;28;20106;-63
2023/12/15 08:59:45;;;;;;;25.92;5.53;;;6.70;99.90;;;;;;5066390;28;20044;-63
2023/12/15 09:02:12;;;;;;;21.52;4.55;;;6.80;99.90;;;;;;5066753;28;20048;-62
2023/12/15 09:04:39;;;;;;;17.00;3.55;;;6.80;99.90;;;;;;5067707;28;20054;-63
2023/12/15 09:07:17;;;;;;;18.45;3.63;;;6.90;99.90;;;;;;5068941;28;20119;-62
2023/12/15 09:09:44;;;;;;;18.48;3.83;;;7.00;99.90;;;;;;5066042;28;20511;-63
2023/12/15 09:12:11;;;;;;;10.05;3.58;;;7.00;99.90;;;;;;5047611;28;20395;-64
2023/12/15 09:14:37;;;;;;;17.23;3.05;;;7.00;99.90;;;;;;5058301;28;20118;-63
2023/12/15 09:17:11;;;;;;;29.63;4.72;;;7.10;99.90;;;;;;5083323;28;20161;-62
2023/12/15 09:19:38;;;;;;;14.57;3.47;;;7.10;99.90;;;;;;5057753;28;20133;-62
2023/12/15 09:22:05;;;;;;;22.65;4.53;;;7.10;99.90;;;;;;5065774;28;20048;-62
2023/12/15 09:24:33;;;;;;;19.85;4.05;;;7.20;99.90;;;;;;5071067;28;20098;-61
2023/12/15 09:27:00;;;;;;;13.40;4.00;;;7.20;99.90;;;;;;5070897;28;20071;-61
2023/12/15 09:29:28;;;;;;;17.67;3.40;;;7.20;99.90;;;;;;5083854;28;20040;-61
2023/12/15 09:31:55;;;;;;;21.40;5.80;;;7.30;99.90;;;;;;5048582;28;20044;-62
2023/12/15 09:34:23;;;;;;;14.63;2.97;;;7.30;99.90;;;;;;5069755;28;20040;-62
2023/12/15 09:36:50;;;;;;;20.80;3.55;;;7.40;99.90;;;;;;5068478;28;20553;-62
2023/12/15 09:39:17;;;;;;;17.80;2.78;;;7.40;99.90;;;;;;5066538;28;20090;-62
2023/12/15 09:41:44;;;;;;;21.55;4.65;;;7.50;99.90;;;;;;5053328;28;20047;-61
2023/12/15 09:44:10;;;;;;;10.95;3.28;;;7.50;99.90;;;;;;5075473;28;20052;-62
2023/12/15 09:46:37;;;;;;;21.92;4.95;;;7.50;99.90;;;;;;5070886;28;20044;-62
2023/12/15 09:49:04;;;;;;;21.45;3.83;;;7.50;99.90;;;;;;5047088;28;20388;-62
2023/12/15 09:51:31;;;;;;;19.58;4.57;;;7.60;99.90;;;;;;5066555;28;20040;-62
2023/12/15 09:53:58;;;;;;;17.77;2.85;;;7.60;99.90;;;;;;5062265;28;20052;-62
2023/12/15 09:56:25;;;;;;;21.50;3.95;;;7.70;99.90;;;;;;5055098;28;20123;-62
2023/12/15 09:58:53;;;;;;;16.30;3.03;;;7.70;99.90;;;;;;5066288;28;20061;-62
2023/12/15 10:01:20;;;;;;;19.08;3.83;;;7.70;99.90;;;;;;5064301;28;20044;-62
2023/12/15 10:03:48;;;;;;;18.05;3.67;;;7.70;99.90;;;;;;5069771;28;20048;-61
2023/12/15 10:06:15;;;;;;;17.27;3.92;;;7.70;99.90;;;;;;5063389;28;20136;-61
2023/12/15 10:08:43;;;;;;;14.68;4.43;;;7.70;99.90;;;;;;5067940;28;20052;-61
2023/12/15 10:11:29;;;;;;;17.55;3.53;;;7.70;99.90;;;;;;5057356;28;20056;-61
2023/12/15 10:14:04;;;;;;;16.63;3.58;;;7.70;99.90;;;;;;5081906;28;20098;-61
2023/12/15 10:16:32;;;;;;;22.02;3.85;;;7.70;99.90;;;;;;5078635;28;20048;-63
2023/12/15 10:19:02;;;;;;;12.32;2.60;;;7.70;99.90;;;;;;5068190;28;20557;-62
2023/12/15 10:21:31;;;;;;;28.33;3.95;;;7.80;99.90;;;;;;5060533;28;20049;-62
2023/12/15 10:23:59;;;;;;;18.60;3.53;;;7.80;99.90;;;;;;5062927;28;20045;-62
2023/12/15 10:26:29;;;;;;;20.70;4.60;;;7.80;99.90;;;;;;5067694;28;20048;-62
2023/12/15 10:28:56;;;;;;;15.63;3.38;;;7.80;99.90;;;;;;5066865;28;20044;-62
2023/12/15 10:31:27;;;;;;;30.60;4.43;;;7.90;99.90;;;;;;5065983;28;20058;-62
2023/12/15 10:33:53;;;;;;;18.30;3.03;;;8.00;99.90;;;;;;5050924;28;20064;-62
2023/12/15 10:36:20;;;;;;;25.55;3.45;;;8.00;99.90;;;;;;5072977;28;20036;-66
2023/12/15 10:38:47;;;;;;;36.33;4.93;;;8.00;99.90;;;;;;5065145;28;20048;-63
2023/12/15 10:41:14;;;;;;;16.52;4.95;;;8.10;99.90;;;;;;5049539;28;20080;-62
2023/12/15 10:43:41;;;;;;;17.15;3.53;;;8.10;99.90;;;;;;5076357;28;20543;-62
2023/12/15 10:46:09;;;;;;;19.52;3.58;;;8.10;99.90;;;;;;5021368;28;20052;-62
2023/12/15 10:48:38;;;;;;;22.65;4.80;;;8.20;99.90;;;;;;5074616;28;20055;-62
2023/12/15 10:51:07;;;;;;;28.38;4.30;;;8.20;99.90;;;;;;5032819;28;20093;-62
2023/12/15 10:53:34;;;;;;;12.90;3.50;;;8.20;99.90;;;;;;5051424;28;20040;-62
2023/12/15 10:56:01;;;;;;;24.67;5.30;;;8.30;99.90;;;;;;5045507;28;20055;-62
2023/12/15 10:58:27;;;;;;;23.98;3.33;;;8.40;99.90;;;;;;5060471;28;20055;-62
2023/12/15 11:00:54;;;;;;;23.42;4.43;;;8.40;99.90;;;;;;5085874;28;20045;-62
2023/12/15 11:03:23;;;;;;;12.27;3.17;;;8.40;99.90;;;;;;5081992;28;20055;-62
2023/12/15 11:05:50;;;;;;;36.08;8.27;;;8.50;99.90;;;;;;5048427;28;20064;-61
2023/12/15 11:08:17;;;;;;;17.35;4.07;;;8.50;99.90;;;;;;5073153;28;20052;-61
2023/12/15 11:10:44;;;;;;;13.68;3.53;;;8.60;99.90;;;;;;5082096;28;20044;-62
2023/12/15 11:13:48;;;;;;;13.20;3.17;;;8.60;99.90;;;;;;5048362;28;20045;-61
2023/12/15 11:16:17;;;;;;;28.25;4.85;;;8.60;99.90;;;;;;5072104;28;20520;-61
2023/12/15 11:18:44;;;;;;;23.23;4.45;;;8.60;99.90;;;;;;5066419;28;20094;-61
2023/12/15 11:21:11;;;;;;;17.80;4.07;;;8.70;99.90;;;;;;5068705;28;20052;-62
2023/12/15 11:23:57;;;;;;;20.25;3.47;;;8.70;99.90;;;;;;5066405;28;20224;-62
2023/12/15 11:26:32;;;;;;;15.40;2.90;;;8.70;99.90;;;;;;5066642;28;20629;-62
2023/12/15 11:29:18;;;;;;;10.60;2.90;;;8.70;99.90;;;;;;5056160;28;20503;-63
2023/12/15 11:31:45;;;;;;;14.15;3.10;;;8.80;99.90;;;;;;5033883;28;20052;-62
2023/12/15 11:34:38;;;;;;;16.23;3.30;;;8.80;99.90;;;;;;5066709;28;20041;-65
2023/12/15 11:37:05;;;;;;;15.02;3.90;;;8.70;99.90;;;;;;5065242;28;20044;-61
2023/12/15 11:39:35;;;;;;;18.98;3.53;;;8.80;99.90;;;;;;5081927;28;20048;-61
2023/12/15 11:42:01;;;;;;;17.35;3.20;;;8.80;99.90;;;;;;5049161;28;20105;-62
2023/12/15 11:44:30;;;;;;;8.20;2.45;;;8.80;99.90;;;;;;5066565;28;20055;-63
2023/12/15 11:46:58;;;;;;;22.17;4.45;;;8.90;99.90;;;;;;5061063;28;20049;-62
2023/12/15 11:49:25;;;;;;;17.67;3.13;;;8.80;99.90;;;;;;5081149;28;20040;-62
2023/12/15 11:51:52;;;;;;;22.65;3.00;;;8.80;99.90;;;;;;5073373;28;20494;-61
2023/12/15 11:54:19;;;;;;;16.48;2.53;;;8.80;99.90;;;;;;5079669;28;20059;-62
2023/12/15 11:56:45;;;;;;;14.48;3.10;;;8.80;99.90;;;;;;5075945;28;20084;-62
2023/12/15 11:59:12;;;;;;;12.73;3.13;;;8.80;99.90;;;;;;5071306;28;20083;-62
2023/12/15 12:01:39;;;;;;;15.60;3.97;;;8.90;99.90;;;;;;5063455;28;20048;-62
2023/12/15 12:04:17;;;;;;;16.33;3.10;;;8.90;99.90;;;;;;5070279;28;20041;-62
2023/12/15 12:06:44;;;;;;;23.17;3.63;;;8.90;99.90;;;;;;5065784;28;20124;-62
2023/12/15 12:09:12;;;;;;;19.67;4.15;;;9.00;99.90;;;;;;5072566;28;20143;-62
2023/12/15 12:11:39;;;;;;;21.88;3.53;;;8.90;99.90;;;;;;5063076;28;20045;-62
2023/12/15 12:14:07;;;;;;;13.68;3.42;;;9.00;99.90;;;;;;5070860;28;20499;-62
2023/12/15 12:16:34;;;;;;;23.67;4.60;;;9.00;99.90;;;;;;5080580;28;20056;-63
2023/12/15 12:19:02;;;;;;;13.63;3.05;;;9.00;99.90;;;;;;5057604;28;20052;-62
2023/12/15 12:21:29;;;;;;;18.08;3.22;;;9.00;99.90;;;;;;5063770;28;20144;-62
2023/12/15 12:23:56;;;;;;;21.88;4.97;;;8.90;99.90;;;;;;5069520;28;20044;-62
2023/12/15 12:26:22;;;;;;;22.25;4.88;;;9.00;99.90;;;;;;5051742;28;20098;-63
2023/12/15 12:28:50;;;;;;;21.33;3.70;;;9.00;99.90;;;;;;5062597;28;20044;-63
2023/12/15 12:31:18;;;;;;;27.95;4.20;;;9.00;99.90;;;;;;5071132;28;20533;-62
2023/12/15 12:33:45;;;;;;;11.13;2.83;;;8.90;99.90;;;;;;5071571;28;20878;-61
2023/12/15 12:36:14;;;;;;;23.30;4.93;;;8.90;99.90;;;;;;5075107;28;20044;-63
2023/12/15 12:38:46;;;;;;;15.35;3.08;;;8.90;99.90;;;;;;5075715;28;20106;-63
2023/12/15 12:41:14;;;;;;;20.65;4.15;;;9.00;99.90;;;;;;5069445;28;20211;-63
2023/12/15 12:43:41;;;;;;;15.00;2.72;;;9.00;99.90;;;;;;5069152;28;20049;-63
2023/12/15 12:46:11;;;;;;;12.77;3.88;;;9.10;99.90;;;;;;5071563;28;20049;-63
2023/12/15 12:48:38;;;;;;;22.90;4.68;;;9.10;99.90;;;;;;5061746;28;20127;-63